createdAt,value
2022-09-21T00:03:46.886Z,14.98
2022-09-21T00:08:47.053Z,15.11
2022-09-21T00:13:47.902Z,15.15
2022-09-21T00:18:46.670Z,15.12
2022-09-21T00:23:46.817Z,14.98
2022-09-21T00:28:47.356Z,14.97
2022-09-21T00:33:46.106Z,14.98
2022-09-21T00:38:46.086Z,14.99
2022-09-21T00:43:49.455Z,14.92
2022-09-21T00:48:48.408Z,14.83
2022-09-21T00:53:48.865Z,14.81
2022-09-21T00:58:52.330Z,14.72
2022-09-21T01:03:53.130Z,14.76
2022-09-21T01:08:55.807Z,14.62
2022-09-21T01:14:28.976Z,14.61
2022-09-21T01:19:55.914Z,14.59
2022-09-21T01:25:07.707Z,14.55
2022-09-21T01:30:11.012Z,14.62
2022-09-21T01:35:15.369Z,14.62
2022-09-21T01:40:19.327Z,14.65
2022-09-21T01:45:25.114Z,14.66
2022-09-21T01:50:26.170Z,14.64
2022-09-21T01:55:30.240Z,14.62
2022-09-21T02:00:32.474Z,14.60
2022-09-21T02:05:31.526Z,14.54
2022-09-21T02:10:35.404Z,14.53
2022-09-21T02:15:54.933Z,14.53
2022-09-21T02:20:59.905Z,14.46
2022-09-21T02:26:03.221Z,14.45
2022-09-21T02:31:13.401Z,14.43
2022-09-21T02:36:19.663Z,14.35
2022-09-21T02:41:25.254Z,14.28
2022-09-21T02:46:28.784Z,14.18
2022-09-21T02:51:32.318Z,14.16
2022-09-21T02:56:32.674Z,14.08
2022-09-21T03:01:34.374Z,13.99
2022-09-21T03:06:33.686Z,13.96
2022-09-21T03:11:32.549Z,13.95
2022-09-21T03:16:32.764Z,13.94
2022-09-21T03:21:31.551Z,13.88
2022-09-21T03:26:30.382Z,13.86
2022-09-21T03:31:29.162Z,13.78
2022-09-21T03:36:29.399Z,13.75
2022-09-21T03:41:28.397Z,13.71
2022-09-21T03:46:27.189Z,13.74
2022-09-21T03:51:25.971Z,13.78
2022-09-21T03:56:26.170Z,13.82
2022-09-21T04:01:25.123Z,13.75
2022-09-21T04:06:23.942Z,13.76
2022-09-21T04:11:23.284Z,13.73
2022-09-21T04:16:24.354Z,13.73
2022-09-21T04:21:23.427Z,13.77
2022-09-21T04:26:24.195Z,13.76
2022-09-21T04:31:25.484Z,13.74
2022-09-21T04:36:25.866Z,13.68
2022-09-21T04:41:24.685Z,13.65
2022-09-21T04:46:25.144Z,13.61
2022-09-21T04:51:23.904Z,13.61
2022-09-21T04:56:22.633Z,13.56
2022-09-21T05:01:21.368Z,13.49
2022-09-21T05:06:22.190Z,13.50
2022-09-21T05:11:20.853Z,13.52
2022-09-21T05:16:20.562Z,13.53
2022-09-21T05:21:19.331Z,13.46
2022-09-21T05:26:19.443Z,13.43
2022-09-21T05:31:39.381Z,13.47
2022-09-21T05:36:46.946Z,13.37
2022-09-21T05:41:47.823Z,13.44
2022-09-21T05:46:56.413Z,13.22
2022-09-21T05:52:03.673Z,13.25
2022-09-21T05:57:09.271Z,13.27
2022-09-21T06:02:18.008Z,13.30
2022-09-21T06:07:16.778Z,13.47
2022-09-21T06:12:16.973Z,13.61
2022-09-21T06:17:15.721Z,13.71
2022-09-21T06:22:14.465Z,13.78
2022-09-21T06:27:13.187Z,13.93
2022-09-21T06:32:13.421Z,13.71
2022-09-21T06:37:12.162Z,13.84
2022-09-21T06:42:10.928Z,13.77
2022-09-21T06:47:09.653Z,13.73
2022-09-21T06:52:10.010Z,13.80
2022-09-21T06:57:08.743Z,13.77
2022-09-21T07:02:07.695Z,14.05
2022-09-21T07:07:06.617Z,14.22
2022-09-21T07:12:07.190Z,14.32
2022-09-21T07:17:06.611Z,14.36
2022-09-21T07:22:05.285Z,14.44
2022-09-21T07:27:04.016Z,14.39
2022-09-21T07:32:04.595Z,14.52
2022-09-21T07:37:03.431Z,14.53
2022-09-21T07:42:02.073Z,14.55
2022-09-21T07:47:01.406Z,14.55
2022-09-21T07:52:04.351Z,14.86
2022-09-21T07:57:23.115Z,14.97
2022-09-21T08:02:21.855Z,15.03
2022-09-21T08:07:22.068Z,15.43
2022-09-21T08:12:21.139Z,15.70
2022-09-21T08:17:19.861Z,16.05
2022-09-21T08:22:19.014Z,16.24
2022-09-21T08:27:19.277Z,16.33
2022-09-21T08:32:39.331Z,16.76
2022-09-21T08:37:38.063Z,16.91
2022-09-21T08:42:57.730Z,17.51
2022-09-21T08:48:00.099Z,18.11
2022-09-21T08:53:05.410Z,18.86
2022-09-21T08:58:09.996Z,19.47
2022-09-21T09:03:35.185Z,20.38
2022-09-21T09:09:00.836Z,21.62
2022-09-21T09:14:12.490Z,22.14
2022-09-21T09:19:24.222Z,23.22
2022-09-21T09:24:33.166Z,24.14
2022-09-21T09:29:41.541Z,24.96
2022-09-21T09:34:46.070Z,24.84
2022-09-21T09:39:50.307Z,25.63
2022-09-21T09:45:11.986Z,26.12
2022-09-21T09:50:13.052Z,27.27
2022-09-21T09:55:20.186Z,26.25
2022-09-21T10:00:22.548Z,26.16
2022-09-21T10:05:24.639Z,26.82
2022-09-21T10:10:35.214Z,27.43
2022-09-21T10:15:35.534Z,27.08
2022-09-21T10:20:35.136Z,26.13
2022-09-21T10:25:39.432Z,25.61
2022-09-21T10:30:41.483Z,25.17
2022-09-21T10:35:50.702Z,24.84
2022-09-21T10:40:50.105Z,24.26
2022-09-21T10:45:56.112Z,24.81
2022-09-21T10:50:57.133Z,24.77
2022-09-21T10:56:17.082Z,25.38
2022-09-21T11:01:24.683Z,26.75
2022-09-21T11:06:29.307Z,27.66
2022-09-21T11:11:40.957Z,27.71
2022-09-21T11:16:46.157Z,28.35
2022-09-21T11:21:53.581Z,28.66
2022-09-21T11:26:55.752Z,29.18
2022-09-21T11:32:12.893Z,29.91
2022-09-21T11:37:24.648Z,30.69
2022-09-21T11:42:39.478Z,31.92
2022-09-21T11:47:56.723Z,32.68
2022-09-21T11:53:09.459Z,32.65
2022-09-21T11:58:19.471Z,31.98
2022-09-21T12:03:38.499Z,31.28
2022-09-21T12:08:53.385Z,30.97
2022-09-21T12:14:00.175Z,30.88
2022-09-21T12:19:08.126Z,30.89
2022-09-21T12:24:17.135Z,30.03
2022-09-21T12:29:20.668Z,29.51
2022-09-21T12:34:24.226Z,29.15
2022-09-21T12:39:28.750Z,28.42
2022-09-21T12:44:34.341Z,28.46
2022-09-21T12:49:34.799Z,28.62
2022-09-21T12:54:43.068Z,28.40
2022-09-21T12:59:51.645Z,28.22
2022-09-21T13:05:02.197Z,27.90
2022-09-21T13:10:02.709Z,27.59
2022-09-21T13:15:05.874Z,26.86
2022-09-21T13:20:17.024Z,26.26
2022-09-21T13:25:28.193Z,25.74
2022-09-21T13:30:34.904Z,25.49
2022-09-21T13:36:09.605Z,25.14
2022-09-21T13:41:40.280Z,24.78
2022-09-21T13:47:06.609Z,24.36
2022-09-21T13:52:12.322Z,23.68
2022-09-21T13:57:25.706Z,23.33
2022-09-21T14:02:33.344Z,22.94
2022-09-21T14:07:35.468Z,22.50
2022-09-21T14:12:35.962Z,22.43
2022-09-21T14:17:39.829Z,22.04
2022-09-21T14:22:44.317Z,21.85
2022-09-21T14:27:46.281Z,21.59
2022-09-21T14:32:48.375Z,21.48
2022-09-21T14:37:52.226Z,21.09
2022-09-21T14:42:51.019Z,21.45
2022-09-21T14:48:03.830Z,22.31
2022-09-21T14:53:28.314Z,22.89
2022-09-21T14:58:42.933Z,23.33
2022-09-21T15:04:02.779Z,23.54
2022-09-21T15:09:58.574Z,23.42
2022-09-21T15:15:10.618Z,23.33
2022-09-21T15:20:17.124Z,23.44
2022-09-21T15:25:19.403Z,22.95
2022-09-21T15:30:23.061Z,22.24
2022-09-21T15:35:23.630Z,21.70
2022-09-21T15:40:26.146Z,21.41
2022-09-21T15:45:27.609Z,21.19
2022-09-21T15:50:28.223Z,20.76
2022-09-21T15:55:30.482Z,20.34
2022-09-21T16:00:32.448Z,20.11
2022-09-21T16:05:34.495Z,19.81
2022-09-21T16:10:40.998Z,19.65
2022-09-21T16:15:40.750Z,19.59
2022-09-21T16:20:42.771Z,19.44
2022-09-21T16:25:43.904Z,19.23
2022-09-21T16:30:49.015Z,19.12
2022-09-21T16:35:47.867Z,18.81
2022-09-21T16:40:51.949Z,18.64
2022-09-21T16:45:50.861Z,18.70
2022-09-21T16:50:54.063Z,18.52
2022-09-21T16:55:54.682Z,18.49
2022-09-21T17:00:56.539Z,18.55
2022-09-21T17:05:57.469Z,18.59
2022-09-21T17:10:58.083Z,18.63
2022-09-21T17:15:57.436Z,18.61
2022-09-21T17:20:56.149Z,18.57
2022-09-21T17:25:55.100Z,18.30
2022-09-21T17:30:55.609Z,18.08
2022-09-21T17:35:55.430Z,17.86
2022-09-21T17:40:54.781Z,17.25
2022-09-21T17:46:03.728Z,16.92
2022-09-21T17:51:03.291Z,17.07
2022-09-21T17:56:15.416Z,16.75
2022-09-21T18:01:27.689Z,16.60
2022-09-21T18:06:31.632Z,16.59
2022-09-21T18:12:03.072Z,16.59
2022-09-21T18:17:21.895Z,16.54
2022-09-21T18:22:32.979Z,16.58
2022-09-21T18:27:35.485Z,16.62
2022-09-21T18:33:13.013Z,16.59
2022-09-21T18:38:21.822Z,16.52
2022-09-21T18:43:36.610Z,16.43
2022-09-21T18:48:53.221Z,16.35
2022-09-21T18:53:56.511Z,16.29
2022-09-21T18:58:57.511Z,16.21
2022-09-21T19:04:00.856Z,16.18
2022-09-21T19:09:11.076Z,16.07
2022-09-21T19:14:22.593Z,15.96
2022-09-21T19:19:38.931Z,15.90
2022-09-21T19:24:48.403Z,15.86
2022-09-21T19:29:59.388Z,15.86
2022-09-21T19:35:01.185Z,15.83
2022-09-21T19:40:01.968Z,15.79
2022-09-21T19:45:14.664Z,15.72
2022-09-21T19:50:18.595Z,15.66
2022-09-21T19:55:37.480Z,15.60
2022-09-21T20:00:39.601Z,15.52
2022-09-21T20:05:50.636Z,15.50
2022-09-21T20:11:08.639Z,15.25
2022-09-21T20:16:24.593Z,15.34
2022-09-21T20:21:28.690Z,15.35
2022-09-21T20:26:28.802Z,15.38
2022-09-21T20:31:27.939Z,15.38
2022-09-21T20:36:30.030Z,15.34
2022-09-21T20:41:28.766Z,15.30
2022-09-21T20:46:27.523Z,15.23
2022-09-21T20:51:28.572Z,15.14
2022-09-21T20:56:27.287Z,15.14
2022-09-21T21:01:27.141Z,15.17
2022-09-21T21:06:31.311Z,15.18
2022-09-21T21:11:30.079Z,15.17
2022-09-21T21:16:28.929Z,15.14
2022-09-21T21:21:29.046Z,15.17
2022-09-21T21:26:50.240Z,15.18
2022-09-21T21:31:47.856Z,15.20
2022-09-21T21:36:48.017Z,15.16
2022-09-21T21:41:46.879Z,15.14
2022-09-21T21:46:45.631Z,15.12
2022-09-21T21:51:44.762Z,15.12
2022-09-21T21:56:45.149Z,15.02
2022-09-21T22:01:46.775Z,15.01
2022-09-21T22:06:45.553Z,15.04
2022-09-21T22:11:45.915Z,15.07
2022-09-21T22:16:44.806Z,15.08
2022-09-21T22:21:48.228Z,15.09
2022-09-21T22:26:50.773Z,15.09
2022-09-21T22:31:50.990Z,15.03
2022-09-21T22:36:50.786Z,15.05
2022-09-21T22:41:50.873Z,15.07
2022-09-21T22:46:49.578Z,15.09
2022-09-21T22:51:48.461Z,15.04
2022-09-21T22:56:47.142Z,15.05
2022-09-21T23:01:47.599Z,15.05
2022-09-21T23:06:46.807Z,15.00
2022-09-21T23:11:48.118Z,14.91
2022-09-21T23:16:48.526Z,14.89
2022-09-21T23:21:50.571Z,14.89
2022-09-21T23:26:51.698Z,14.76
2022-09-21T23:31:52.085Z,14.74
2022-09-21T23:36:50.836Z,14.66
2022-09-21T23:41:49.567Z,14.63
2022-09-21T23:46:48.376Z,14.57
2022-09-21T23:51:48.495Z,14.50
2022-09-21T23:56:47.656Z,14.48
